Terminal Aerodrome Forecast
Issued by NWS Grand Forks, ND

Home | Current Version | Previous Version | Text Only | Print | Product List | Glossary Off
Versions: 1 2 3 4 5 6 7 8 9 10 11 12 13 14

000
FTUS43 KFGF 262340
TAFFAR
TAF
KFAR 262340Z 2700/2724 06005KT P6SM VCTS BKN090CB
     FM270400 03006KT P6SM BKN050
     FM271900 01009KT P6SM SCT250=

USA.gov is the U.S. government's official web portal to all federal, state and local government web resources and services.